Aérodrome :
LOGIN :

S'inscrire | Disclaimer

   EN    FR    IT 

 










Légende :    VFR   VFR Marginal   IFR   IFR Intensif   IFR Très Intensif
Visi : 
Plafond : 
>= 8 km
>= 3000ft
5 à 8 km
1000 à 3000 ft
1500m à 5 km
500 à 1000 ft
800 à 1500m
200 à 500 ft
< 800m
< 200 ft
Symboles :   Orages  Brouillard  Fortes neiges  Fortes précipitations  Vent > 20 kt
SIGMETs :   Divers  Orages  Givrage  Turbulence  Onde Orograph.  Cendres Volcan.







- Altitude de l'aérodrome : 1106 ft
- Voir les cartes d'approche


LFSO - Nancy / Ochey

DERNIER METAR :
  • 190900Z AUTO 32004KT 260V360 9999 OVC008 13/11 Q1006

METARs EXPIRÉS :
  • 190830Z AUTO 30004KT 270V340 9999 OVC008 13/11 Q1006
  • 190800Z AUTO 31004KT 9999 OVC007 13/11 Q1006
  • 190730Z AUTO 32004KT 280V350 9999 OVC006 13/11 Q1005
  • 190700Z AUTO 29004KT 260V320 8000 OVC005 12/11 Q1005
  • 190630Z AUTO VRB03KT 6000 OVC004 12/11 Q1005 BECMG BKN015

TAF AMD TAF LFSO
Valide du 19 à 05h jusqu'au 20 à 03h UTC


190515Z 1905/2003 26003KT 6000 BKN005
TEMPO 1905/1906 3000 BR
BECMG 1907/1909 BKN015
TEMPO 1909/1918 4000 SHRA BKN020TCU
PROB40
TEMPO 1910/1917 25010G25KT 3000 TSRA BKN020CB
BECMG 1923/2001 3000 BR BKN004
Pas de NOTAMs connus pour ce terrain.



MET'MAP, la Météo Aéronautique d'un coup d'oeil ! - Copyright ORBIFLY Décembre 2007 - Disclaimer

ORBIFLY MET'MAP TEAM :

Programmation & Développement : Alexandra Zaïnal
Conception & Développement : Baudouin d'Aumeries
Co-Programmation & Développement : Marc-Olivier Méhu
Soutien technique & logistique : Manuel Goepfert

Contact : metmap@orbifly.com




SOURCES & CREDITS :

   NOAA